createdAt,value
2022-08-15T00:02:02.133Z,19.40
2022-08-15T00:05:05.998Z,18.70
2022-08-15T00:07:50.714Z,20.20
2022-08-15T00:11:01.432Z,19.70
2022-08-15T00:13:42.637Z,18.57
2022-08-15T00:16:27.094Z,17.70
2022-08-15T00:19:14.348Z,19.03
2022-08-15T00:22:00.871Z,18.80
2022-08-15T00:24:47.225Z,19.40
2022-08-15T00:27:35.864Z,20.67
2022-08-15T00:30:25.940Z,20.93
2022-08-15T00:33:21.303Z,20.90
2022-08-15T00:36:52.663Z,20.60
2022-08-15T00:39:13.794Z,22.47
2022-08-15T00:42:01.459Z,21.20
2022-08-15T00:44:52.650Z,19.77
2022-08-15T00:48:04.982Z,21.20
2022-08-15T00:50:48.951Z,21.30
2022-08-15T00:53:33.065Z,20.93
2022-08-15T00:56:30.415Z,22.63
2022-08-15T00:59:17.225Z,22.03
2022-08-15T01:02:23.158Z,23.13
2022-08-15T01:05:14.665Z,23.57
2022-08-15T01:07:59.625Z,25.90
2022-08-15T01:10:59.646Z,22.90
2022-08-15T01:14:03.487Z,25.07
2022-08-15T01:16:47.930Z,22.73
2022-08-15T01:19:36.169Z,25.03
2022-08-15T01:22:44.102Z,25.70
2022-08-15T01:26:38.638Z,26.80
2022-08-15T01:28:45.191Z,23.53
2022-08-15T01:31:28.806Z,25.07
2022-08-15T01:34:17.967Z,22.13
2022-08-15T01:37:02.208Z,24.20
2022-08-15T01:39:56.876Z,21.87
2022-08-15T01:42:49.630Z,22.93
2022-08-15T01:45:35.742Z,20.93
2022-08-15T01:48:27.151Z,22.83
2022-08-15T01:51:13.324Z,19.13
2022-08-15T01:54:04.340Z,19.33
2022-08-15T01:56:50.266Z,22.27
2022-08-15T01:59:34.960Z,19.17
2022-08-15T02:02:39.618Z,18.00
2022-08-15T02:05:21.475Z,18.33
2022-08-15T02:08:34.186Z,17.57
2022-08-15T02:11:15.906Z,17.33
2022-08-15T02:14:00.302Z,21.13
2022-08-15T02:16:46.051Z,19.93
2022-08-15T02:19:29.390Z,22.43
2022-08-15T02:22:26.120Z,22.87
2022-08-15T02:25:10.993Z,17.47
2022-08-15T02:27:55.662Z,22.77
2022-08-15T02:30:38.821Z,22.07
2022-08-15T02:33:24.434Z,17.53
2022-08-15T02:36:12.461Z,16.63
2022-08-15T02:38:55.767Z,20.67
2022-08-15T02:41:44.344Z,16.63
2022-08-15T02:44:27.695Z,15.70
2022-08-15T02:47:15.981Z,20.50
2022-08-15T02:50:10.265Z,22.40
2022-08-15T02:52:53.732Z,18.30
2022-08-15T02:55:37.787Z,21.03
2022-08-15T02:58:28.815Z,25.97
2022-08-15T03:01:15.392Z,18.53
2022-08-15T03:03:59.668Z,23.80
2022-08-15T03:06:48.251Z,27.80
2022-08-15T03:09:32.428Z,24.10
2022-08-15T03:12:30.046Z,24.37
2022-08-15T03:15:15.240Z,29.50
2022-08-15T03:17:58.674Z,22.47
2022-08-15T03:20:44.816Z,21.43
2022-08-15T03:23:42.207Z,22.43
2022-08-15T03:26:47.189Z,24.53
2022-08-15T03:29:34.171Z,29.23
2022-08-15T03:32:32.260Z,36.27
2022-08-15T03:35:17.285Z,31.03
2022-08-15T03:38:06.095Z,40.73
2022-08-15T03:40:52.193Z,34.83
2022-08-15T03:43:39.902Z,45.00
2022-08-15T03:46:24.196Z,39.43
2022-08-15T03:49:09.713Z,41.27
2022-08-15T03:51:53.651Z,41.07
2022-08-15T03:54:39.058Z,37.23
2022-08-15T03:57:25.213Z,37.57
2022-08-15T04:00:09.784Z,44.10
2022-08-15T04:02:54.961Z,41.07
2022-08-15T04:05:40.737Z,43.30
2022-08-15T04:09:03.468Z,39.23
2022-08-15T04:11:35.858Z,43.17
2022-08-15T04:14:33.552Z,33.83
2022-08-15T04:17:20.945Z,30.93
2022-08-15T04:20:05.633Z,28.53
2022-08-15T04:23:09.826Z,32.43
2022-08-15T04:25:55.580Z,28.47
2022-08-15T04:28:53.998Z,31.53
2022-08-15T04:31:40.004Z,27.77
2022-08-15T04:34:48.261Z,25.90
2022-08-15T04:37:26.442Z,25.00
2022-08-15T04:41:17.584Z,32.63
2022-08-15T04:43:22.462Z,24.63
2022-08-15T04:46:06.880Z,26.67
2022-08-15T04:48:57.385Z,27.43
2022-08-15T04:51:40.494Z,23.73
2022-08-15T04:54:27.184Z,23.17
2022-08-15T04:57:10.747Z,22.90
2022-08-15T05:00:04.896Z,30.13
2022-08-15T05:03:01.160Z,27.60
2022-08-15T05:05:48.637Z,29.37
2022-08-15T05:08:41.233Z,30.93
2022-08-15T05:11:52.439Z,36.43
2022-08-15T05:14:36.416Z,31.67
2022-08-15T05:17:55.156Z,30.70
2022-08-15T05:20:36.191Z,30.07
2022-08-15T05:23:33.735Z,28.60
2022-08-15T05:26:53.444Z,33.90
2022-08-15T05:29:29.035Z,35.43
2022-08-15T05:32:18.640Z,42.03
2022-08-15T05:35:02.159Z,32.03
2022-08-15T05:37:47.379Z,30.20
2022-08-15T05:40:44.132Z,30.50
2022-08-15T05:43:53.327Z,32.00
2022-08-15T05:46:45.415Z,31.33
2022-08-15T05:49:37.869Z,42.00
2022-08-15T05:52:31.665Z,45.57
2022-08-15T05:55:24.444Z,48.97
2022-08-15T05:58:43.001Z,43.80
2022-08-15T06:01:32.780Z,46.60
2022-08-15T06:04:30.415Z,45.83
2022-08-15T06:07:17.218Z,51.13
2022-08-15T06:10:04.964Z,52.70
2022-08-15T06:13:04.990Z,42.83
2022-08-15T06:15:55.750Z,39.20
2022-08-15T06:18:39.353Z,40.80
2022-08-15T06:21:35.249Z,42.77
2022-08-15T06:24:31.595Z,49.87
2022-08-15T06:27:41.724Z,44.63
2022-08-15T06:30:42.027Z,53.13
2022-08-15T06:33:56.627Z,47.93
2022-08-15T06:36:47.997Z,39.27
2022-08-15T06:39:55.261Z,39.07
2022-08-15T06:42:42.457Z,40.83
2022-08-15T06:45:36.355Z,37.97
2022-08-15T06:48:59.394Z,41.67
2022-08-15T06:51:45.303Z,51.70
2022-08-15T06:54:36.024Z,41.77
2022-08-15T06:57:34.094Z,49.77
2022-08-15T07:00:35.584Z,49.87
2022-08-15T07:03:33.283Z,43.07
2022-08-15T07:06:20.865Z,44.80
2022-08-15T07:09:23.252Z,49.90
2022-08-15T07:12:36.306Z,51.53
2022-08-15T07:15:30.809Z,54.23
2022-08-15T07:18:20.338Z,51.17
2022-08-15T07:21:10.801Z,51.30
2022-08-15T07:24:33.907Z,56.20
2022-08-15T07:27:17.346Z,55.00
2022-08-15T07:30:12.269Z,63.33
2022-08-15T07:32:57.226Z,52.10
2022-08-15T07:35:40.676Z,49.03
2022-08-15T07:38:31.191Z,50.80
2022-08-15T07:41:26.643Z,51.83
2022-08-15T07:44:21.791Z,46.27
2022-08-15T07:47:14.950Z,51.87
2022-08-15T07:50:03.218Z,51.30
2022-08-15T07:52:57.398Z,57.73
2022-08-15T07:58:45.880Z,47.17
2022-08-15T08:01:33.673Z,43.90
2022-08-15T08:04:24.859Z,43.77
2022-08-15T08:07:34.122Z,40.70
2022-08-15T08:10:27.285Z,39.43
2022-08-15T08:13:39.074Z,36.77
2022-08-15T08:16:31.366Z,37.80
2022-08-15T08:19:24.311Z,32.00
2022-08-15T08:22:21.703Z,34.17
2022-08-15T08:25:14.291Z,30.73
2022-08-15T08:28:10.564Z,34.00
2022-08-15T08:31:03.464Z,36.13
2022-08-15T08:34:07.649Z,33.43
2022-08-15T08:37:04.087Z,34.47
2022-08-15T08:39:57.422Z,34.47
2022-08-15T08:42:52.751Z,31.40
2022-08-15T08:45:50.499Z,30.37
2022-08-15T08:48:47.871Z,28.63
2022-08-15T08:51:49.321Z,25.97
2022-08-15T08:55:00.809Z,28.10
2022-08-15T08:57:52.445Z,26.40
2022-08-15T09:00:39.681Z,30.93
2022-08-15T09:03:28.378Z,31.13
2022-08-15T09:06:25.969Z,28.60
2022-08-15T09:09:19.147Z,29.13
2022-08-15T09:12:29.613Z,26.10
2022-08-15T09:15:19.918Z,26.33
2022-08-15T09:18:09.388Z,25.63
2022-08-15T09:20:53.693Z,30.87
2022-08-15T09:23:43.412Z,28.47
2022-08-15T09:26:38.864Z,26.10
2022-08-15T09:29:27.570Z,27.20
2022-08-15T09:32:31.655Z,27.13
2022-08-15T09:35:38.533Z,27.63
2022-08-15T09:38:50.657Z,27.53
2022-08-15T09:42:00.894Z,26.50
2022-08-15T09:45:00.262Z,27.43
2022-08-15T09:48:06.303Z,24.67
2022-08-15T09:51:05.314Z,26.50
2022-08-15T09:54:02.589Z,25.77
2022-08-15T09:56:47.528Z,25.67
2022-08-15T09:59:43.761Z,25.27
2022-08-15T10:02:37.744Z,23.57
2022-08-15T10:05:38.047Z,22.87
2022-08-15T10:08:29.468Z,26.93
2022-08-15T10:11:15.562Z,22.53
2022-08-15T10:14:13.852Z,23.60
2022-08-15T10:17:05.654Z,23.47
2022-08-15T10:20:18.013Z,23.50
2022-08-15T10:22:53.872Z,21.00
2022-08-15T10:25:40.143Z,21.10
2022-08-15T10:28:37.207Z,21.83
2022-08-15T10:31:50.063Z,21.20
2022-08-15T10:34:39.965Z,22.03
2022-08-15T10:37:28.363Z,19.73
2022-08-15T10:40:42.222Z,27.70
2022-08-15T10:43:54.285Z,20.27
2022-08-15T10:46:59.016Z,20.07
2022-08-15T10:49:59.096Z,24.63
2022-08-15T10:52:59.574Z,20.73
2022-08-15T10:55:58.145Z,20.73
2022-08-15T10:58:43.178Z,22.60
2022-08-15T11:01:34.055Z,18.30
2022-08-15T11:04:48.966Z,17.13
2022-08-15T11:07:42.947Z,17.07
2022-08-15T11:10:30.440Z,18.13
2022-08-15T11:13:17.761Z,18.73
2022-08-15T11:16:32.878Z,19.80
2022-08-15T11:20:03.914Z,18.63
2022-08-15T11:22:34.375Z,24.37
2022-08-15T11:25:21.224Z,20.63
2022-08-15T11:28:29.292Z,19.70
2022-08-15T11:31:19.217Z,21.03
2022-08-15T11:34:24.066Z,29.33
2022-08-15T11:37:16.758Z,22.70
2022-08-15T11:40:09.492Z,18.83
2022-08-15T11:42:57.881Z,19.77
2022-08-15T11:45:51.669Z,19.37
2022-08-15T11:48:39.315Z,20.60
2022-08-15T11:51:32.151Z,19.87
2022-08-15T11:54:34.806Z,21.77
2022-08-15T11:57:43.462Z,23.77
2022-08-15T12:00:31.143Z,18.30
2022-08-15T12:04:40.159Z,22.27
2022-08-15T12:06:34.710Z,21.63
2022-08-15T12:12:47.969Z,18.60
2022-08-15T12:13:17.784Z,18.60
2022-08-15T12:15:46.098Z,18.07
2022-08-15T12:18:46.852Z,18.67
2022-08-15T12:21:33.943Z,18.17
2022-08-15T12:24:25.671Z,16.93
2022-08-15T12:27:13.954Z,30.53
2022-08-15T12:30:01.120Z,18.23
2022-08-15T12:32:44.237Z,21.60
2022-08-15T12:36:01.413Z,24.67
2022-08-15T12:38:44.989Z,19.40
2022-08-15T12:42:47.474Z,17.33
2022-08-15T12:44:38.231Z,16.23
2022-08-15T12:47:32.106Z,21.63
2022-08-15T12:50:16.006Z,17.87
2022-08-15T12:53:08.977Z,16.43
2022-08-15T12:55:55.677Z,15.83
2022-08-15T12:58:39.893Z,17.10
2022-08-15T13:01:31.996Z,21.80
2022-08-15T13:04:54.353Z,18.80
2022-08-15T13:07:31.587Z,18.33
2022-08-15T13:11:01.424Z,17.27
2022-08-15T13:13:22.067Z,16.70
2022-08-15T13:17:06.327Z,15.97
2022-08-15T13:19:16.200Z,15.00
2022-08-15T13:22:32.790Z,17.93
2022-08-15T13:25:28.652Z,16.77
2022-08-15T13:28:13.053Z,15.53
2022-08-15T13:31:01.377Z,16.07
2022-08-15T13:33:47.752Z,15.57
2022-08-15T13:36:36.157Z,16.23
2022-08-15T13:39:54.914Z,18.20
2022-08-15T13:42:39.216Z,18.83
2022-08-15T13:45:56.836Z,17.03
2022-08-15T13:48:36.696Z,16.30
2022-08-15T13:52:00.737Z,17.00
2022-08-15T13:54:33.212Z,17.27
2022-08-15T13:57:31.064Z,19.00
2022-08-15T14:00:57.506Z,18.13
2022-08-15T14:03:23.854Z,18.17
2022-08-15T14:06:08.151Z,25.07
2022-08-15T14:09:13.954Z,23.53
2022-08-15T14:11:57.270Z,29.33
2022-08-15T14:14:46.733Z,22.87
2022-08-15T14:17:36.983Z,20.27
2022-08-15T14:20:26.906Z,19.10
2022-08-15T14:23:11.084Z,18.93
2022-08-15T14:27:09.331Z,26.80
2022-08-15T14:29:03.074Z,18.57
2022-08-15T14:34:57.262Z,18.03
2022-08-15T14:37:47.514Z,18.10
2022-08-15T14:40:36.412Z,23.10
2022-08-15T14:43:24.224Z,20.00
2022-08-15T14:46:31.274Z,16.77
2022-08-15T14:49:16.102Z,17.43
2022-08-15T14:52:10.641Z,17.77
2022-08-15T14:55:02.725Z,19.13
2022-08-15T14:57:59.455Z,17.50
2022-08-15T15:00:57.613Z,24.67
2022-08-15T15:03:56.339Z,26.80
2022-08-15T15:06:44.736Z,24.97
2022-08-15T15:09:29.394Z,25.63
2022-08-15T15:12:14.821Z,16.37
2022-08-15T15:14:58.743Z,19.73
2022-08-15T15:17:42.174Z,19.77
2022-08-15T15:20:27.627Z,19.07
2022-08-15T15:23:32.512Z,17.50
2022-08-15T15:26:16.314Z,20.67
2022-08-15T15:29:01.324Z,20.47
2022-08-15T15:31:44.661Z,19.63
2022-08-15T15:34:30.023Z,20.70
2022-08-15T15:37:16.089Z,17.73
2022-08-15T15:40:03.901Z,19.43
2022-08-15T15:42:48.306Z,19.00
2022-08-15T15:45:34.032Z,20.20
2022-08-15T15:48:28.558Z,18.90
2022-08-15T15:51:14.326Z,22.30
2022-08-15T15:53:59.386Z,18.63
2022-08-15T15:56:45.397Z,24.63
2022-08-15T15:59:58.017Z,29.30
2022-08-15T16:02:44.111Z,28.23
2022-08-15T16:06:04.132Z,21.20
2022-08-15T16:08:43.127Z,20.63
2022-08-15T16:11:42.139Z,24.33
2022-08-15T16:14:31.566Z,26.73
2022-08-15T16:17:17.757Z,20.23
2022-08-15T16:20:29.671Z,38.80
2022-08-15T16:23:18.838Z,21.30
2022-08-15T16:26:17.481Z,24.30
2022-08-15T16:29:06.971Z,19.37
2022-08-15T16:31:58.834Z,26.93
2022-08-15T16:34:49.161Z,26.67
2022-08-15T16:37:47.373Z,20.00
2022-08-15T16:41:00.181Z,23.07
2022-08-15T16:43:54.634Z,31.40
2022-08-15T16:46:45.259Z,19.77
2022-08-15T16:49:46.047Z,23.73
2022-08-15T16:52:45.357Z,20.63
2022-08-15T16:55:37.007Z,20.33
2022-08-15T16:58:38.115Z,26.00
2022-08-15T17:01:45.730Z,33.10
2022-08-15T17:04:55.578Z,37.33
2022-08-15T17:07:52.177Z,23.03
2022-08-15T17:10:46.807Z,26.37
2022-08-15T17:14:03.187Z,38.33
2022-08-15T17:17:06.873Z,20.07
2022-08-15T17:19:58.759Z,25.80
2022-08-15T17:22:50.469Z,27.20
2022-08-15T17:25:40.907Z,22.07
2022-08-15T17:28:34.733Z,19.63
2022-08-15T17:31:25.837Z,30.17
2022-08-15T17:34:40.307Z,28.53
2022-08-15T17:37:27.038Z,37.70
2022-08-15T17:40:26.286Z,43.73
2022-08-15T17:43:14.674Z,27.13
2022-08-15T17:46:11.945Z,28.10
2022-08-15T17:49:02.863Z,25.60
2022-08-15T17:51:53.524Z,25.57
2022-08-15T17:54:52.437Z,26.47
2022-08-15T17:58:01.836Z,25.63
2022-08-15T18:00:45.679Z,22.43
2022-08-15T18:03:29.797Z,28.47
2022-08-15T18:06:13.780Z,22.60
2022-08-15T18:09:00.303Z,23.57
2022-08-15T18:12:01.390Z,22.90
2022-08-15T18:14:46.102Z,19.83
2022-08-15T18:17:32.238Z,28.03
2022-08-15T18:20:27.667Z,51.30
2022-08-15T18:23:19.682Z,39.30
2022-08-15T18:26:19.459Z,31.37
2022-08-15T18:29:25.288Z,38.17
2022-08-15T18:32:21.644Z,38.87
2022-08-15T18:35:13.381Z,27.83
2022-08-15T18:38:08.345Z,30.87
2022-08-15T18:41:15.482Z,36.93
2022-08-15T18:44:08.531Z,29.33
2022-08-15T18:47:07.031Z,29.37
2022-08-15T18:49:50.766Z,37.80
2022-08-15T18:52:36.719Z,29.77
2022-08-15T18:55:23.162Z,39.60
2022-08-15T18:58:18.169Z,30.10
2022-08-15T19:01:05.610Z,31.60
2022-08-15T19:03:55.378Z,37.03
2022-08-15T19:06:50.194Z,45.20
2022-08-15T19:09:37.862Z,25.60
2022-08-15T19:12:29.839Z,34.13
2022-08-15T19:15:18.793Z,34.17
2022-08-15T19:18:08.124Z,35.27
2022-08-15T19:20:55.043Z,33.40
2022-08-15T19:23:39.850Z,32.20
2022-08-15T19:26:42.191Z,30.97
2022-08-15T19:29:38.032Z,28.20
2022-08-15T19:32:29.982Z,31.37
2022-08-15T19:35:23.875Z,26.53
2022-08-15T19:38:26.850Z,25.87
2022-08-15T19:41:20.600Z,25.23
2022-08-15T19:44:21.953Z,26.47
2022-08-15T19:47:14.626Z,34.27
2022-08-15T19:50:38.497Z,26.53
2022-08-15T19:53:44.783Z,27.20
2022-08-15T19:56:45.122Z,22.83
2022-08-15T19:59:36.199Z,25.47
2022-08-15T20:02:27.015Z,23.87
2022-08-15T20:06:05.523Z,31.83
2022-08-15T20:08:39.240Z,29.80
2022-08-15T20:11:31.070Z,31.33
2022-08-15T20:14:47.432Z,24.87
2022-08-15T20:17:57.380Z,25.10
2022-08-15T20:20:39.604Z,24.67
2022-08-15T20:23:40.752Z,21.03
2022-08-15T20:26:31.511Z,31.03
2022-08-15T20:29:34.033Z,24.00
2022-08-15T20:32:36.140Z,22.13
2022-08-15T20:35:32.776Z,21.80
2022-08-15T20:38:20.533Z,21.37
2022-08-15T20:41:13.348Z,22.60
2022-08-15T20:44:31.417Z,24.37
2022-08-15T20:47:17.663Z,25.27
2022-08-15T20:50:04.854Z,24.50
2022-08-15T20:52:57.230Z,27.47
2022-08-15T20:55:50.929Z,25.23
2022-08-15T20:59:18.207Z,24.57
2022-08-15T21:02:34.608Z,23.97
2022-08-15T21:05:42.650Z,21.07
2022-08-15T21:08:38.898Z,21.67
2022-08-15T21:11:50.721Z,23.93
2022-08-15T21:15:40.933Z,25.80
2022-08-15T21:18:03.698Z,27.37
2022-08-15T21:21:04.254Z,36.70
2022-08-15T21:24:19.366Z,25.30
2022-08-15T21:27:12.696Z,31.73
2022-08-15T21:31:00.754Z,25.63
2022-08-15T21:34:33.425Z,26.93
2022-08-15T21:37:40.154Z,26.70
2022-08-15T21:40:50.959Z,23.83
2022-08-15T21:44:20.435Z,25.03
2022-08-15T21:47:33.253Z,24.93
2022-08-15T21:50:38.360Z,22.47
2022-08-15T21:53:28.085Z,25.03
2022-08-15T21:56:27.028Z,24.83
2022-08-15T22:00:20.437Z,24.50
2022-08-15T22:02:55.475Z,23.80
2022-08-15T22:05:43.822Z,26.50
2022-08-15T22:08:40.164Z,25.13
2022-08-15T22:11:29.007Z,23.20
2022-08-15T22:14:28.268Z,31.43
2022-08-15T22:17:12.414Z,21.43
2022-08-15T22:19:55.494Z,22.70
2022-08-15T22:22:41.788Z,24.50
2022-08-15T22:25:40.329Z,27.57
2022-08-15T22:28:51.566Z,26.23
2022-08-15T22:31:44.027Z,31.00
2022-08-15T22:34:35.373Z,22.60
2022-08-15T22:37:20.152Z,29.10
2022-08-15T22:40:09.866Z,22.20
2022-08-15T22:42:58.889Z,25.03
2022-08-15T22:45:47.729Z,21.73
2022-08-15T22:48:34.767Z,24.57
2022-08-15T22:51:31.150Z,27.00
2022-08-15T22:54:20.640Z,25.87
2022-08-15T22:57:13.333Z,26.03
2022-08-15T22:59:59.325Z,26.17
2022-08-15T23:02:42.998Z,27.23
2022-08-15T23:05:31.120Z,26.33
2022-08-15T23:08:20.212Z,26.90
2022-08-15T23:11:07.151Z,23.33
2022-08-15T23:13:59.605Z,29.20
2022-08-15T23:16:51.431Z,22.83
2022-08-15T23:19:46.846Z,29.93
2022-08-15T23:22:41.013Z,22.37
2022-08-15T23:25:49.448Z,24.70
2022-08-15T23:28:33.980Z,26.23
2022-08-15T23:31:23.465Z,28.53
2022-08-15T23:34:10.075Z,29.00
2022-08-15T23:37:00.997Z,26.60
2022-08-15T23:39:55.728Z,36.80
2022-08-15T23:42:48.965Z,31.70
2022-08-15T23:45:37.487Z,33.40
2022-08-15T23:48:28.750Z,26.43
2022-08-15T23:51:12.542Z,30.83
2022-08-15T23:53:56.005Z,31.97
2022-08-15T23:56:43.316Z,40.60
2022-08-15T23:59:34.041Z,28.23
